createdAt,value
2018-08-25T00:00:40.059Z,1.67
2018-08-25T00:03:08.815Z,1.27
2018-08-25T00:05:37.328Z,0.93
2018-08-25T00:08:05.916Z,1.57
2018-08-25T00:10:34.470Z,1.47
2018-08-25T00:13:02.912Z,1.10
2018-08-25T00:15:31.422Z,1.20
2018-08-25T00:18:00.091Z,0.80
2018-08-25T00:20:28.519Z,1.30
2018-08-25T00:22:57.030Z,1.40
2018-08-25T00:25:25.539Z,1.00
2018-08-25T00:27:54.027Z,1.03
2018-08-25T00:30:27.884Z,1.13
2018-08-25T00:32:56.439Z,0.60
2018-08-25T00:35:24.907Z,1.17
2018-08-25T00:37:53.568Z,0.93
2018-08-25T00:40:22.016Z,1.03
2018-08-25T00:42:50.547Z,0.90
2018-08-25T00:45:19.081Z,1.10
2018-08-25T00:47:47.672Z,1.10
2018-08-25T00:50:16.075Z,1.10
2018-08-25T00:52:44.524Z,1.30
2018-08-25T00:55:13.100Z,0.87
2018-08-25T00:57:41.566Z,1.13
2018-08-25T01:00:10.217Z,0.93
2018-08-25T01:02:38.743Z,1.37
2018-08-25T01:05:07.407Z,1.07
2018-08-25T01:07:36.084Z,1.27
2018-08-25T01:10:04.600Z,1.10
2018-08-25T01:12:33.127Z,1.30
2018-08-25T01:15:01.795Z,1.13
2018-08-25T01:17:30.279Z,1.00
2018-08-25T01:19:58.732Z,1.20
2018-08-25T01:22:27.211Z,2.00
2018-08-25T01:24:55.704Z,1.73
2018-08-25T01:27:24.199Z,1.13
2018-08-25T01:29:52.715Z,1.30
2018-08-25T01:32:21.195Z,1.33
2018-08-25T01:34:49.659Z,1.03
2018-08-25T01:37:18.367Z,1.67
2018-08-25T01:39:46.880Z,1.50
2018-08-25T01:42:15.357Z,1.17
2018-08-25T01:44:44.008Z,1.30
2018-08-25T01:47:12.441Z,0.90
2018-08-25T01:49:40.875Z,1.50
2018-08-25T01:52:09.360Z,2.20
2018-08-25T01:54:37.775Z,2.00
2018-08-25T01:57:06.326Z,1.80
2018-08-25T01:59:35.208Z,1.70
2018-08-25T02:02:03.768Z,1.50
2018-08-25T02:04:32.270Z,1.40
2018-08-25T02:07:00.758Z,1.50
2018-08-25T02:09:29.179Z,1.40
2018-08-25T02:11:57.663Z,1.27
2018-08-25T02:14:26.371Z,1.30
2018-08-25T02:16:54.815Z,1.70
2018-08-25T02:19:23.251Z,1.43
2018-08-25T02:21:51.699Z,1.83
2018-08-25T02:24:20.135Z,1.73
2018-08-25T02:26:48.551Z,1.33
2018-08-25T02:29:17.228Z,1.83
2018-08-25T02:31:45.999Z,1.70
2018-08-25T02:34:14.462Z,1.83
2018-08-25T02:36:42.987Z,1.37
2018-08-25T02:39:13.348Z,1.93
2018-08-25T02:41:42.787Z,1.53
2018-08-25T02:44:11.660Z,1.43
2018-08-25T02:46:40.082Z,1.83
2018-08-25T02:49:08.884Z,1.10
2018-08-25T02:51:37.391Z,1.40
2018-08-25T02:54:05.888Z,2.10
2018-08-25T02:56:34.400Z,1.40
2018-08-25T02:59:02.867Z,1.77
2018-08-25T03:01:31.375Z,1.47
2018-08-25T03:03:59.880Z,2.57
2018-08-25T03:06:28.349Z,1.97
2018-08-25T03:08:56.806Z,1.60
2018-08-25T03:11:25.268Z,1.27
2018-08-25T03:13:53.813Z,2.10
2018-08-25T03:16:22.474Z,2.27
2018-08-25T03:18:50.923Z,1.33
2018-08-25T03:21:19.410Z,1.40
2018-08-25T03:23:47.831Z,1.53
2018-08-25T03:26:16.386Z,1.37
2018-08-25T03:28:44.807Z,1.60
2018-08-25T03:31:13.301Z,1.50
2018-08-25T03:33:41.894Z,1.93
2018-08-25T03:36:10.372Z,2.00
2018-08-25T03:38:38.872Z,1.67
2018-08-25T03:41:08.475Z,1.40
2018-08-25T03:43:36.941Z,1.30
2018-08-25T03:46:05.512Z,1.40
2018-08-25T03:48:34.261Z,1.93
2018-08-25T03:51:02.831Z,1.70
2018-08-25T03:53:31.305Z,1.70
2018-08-25T03:56:00.564Z,1.87
2018-08-25T03:58:29.112Z,1.70
2018-08-25T04:00:57.571Z,1.43
2018-08-25T04:03:26.251Z,1.27
2018-08-25T04:05:54.983Z,1.57
2018-08-25T04:08:23.436Z,1.60
2018-08-25T04:10:52.783Z,1.90
2018-08-25T04:13:21.267Z,1.40
2018-08-25T04:15:49.787Z,1.30
2018-08-25T04:18:18.458Z,1.20
2018-08-25T04:20:47.027Z,1.60
2018-08-25T04:23:15.447Z,1.70
2018-08-25T04:25:44.328Z,1.43
2018-08-25T04:28:12.776Z,1.70
2018-08-25T04:30:41.291Z,1.43
2018-08-25T04:33:09.720Z,1.70
2018-08-25T04:35:38.243Z,2.10
2018-08-25T04:38:06.675Z,1.40
2018-08-25T04:40:35.295Z,2.20
2018-08-25T04:43:03.759Z,2.07
2018-08-25T04:45:32.195Z,2.03
2018-08-25T04:48:00.667Z,2.00
2018-08-25T04:50:29.203Z,1.77
2018-08-25T04:52:57.704Z,1.70
2018-08-25T04:55:26.357Z,1.80
2018-08-25T04:57:54.796Z,1.50
2018-08-25T05:00:23.331Z,1.40
2018-08-25T05:02:52.147Z,1.40
2018-08-25T05:05:20.684Z,1.40
2018-08-25T05:07:49.201Z,1.60
2018-08-25T05:10:17.959Z,1.93
2018-08-25T05:12:46.491Z,2.30
2018-08-25T05:15:14.983Z,1.20
2018-08-25T05:17:43.630Z,1.63
2018-08-25T05:20:12.072Z,1.97
2018-08-25T05:22:40.536Z,1.67
2018-08-25T05:25:09.719Z,2.53
2018-08-25T05:27:38.290Z,2.00
2018-08-25T05:30:07.600Z,1.97
2018-08-25T05:32:36.091Z,1.37
2018-08-25T05:35:04.799Z,2.10
2018-08-25T05:37:33.345Z,1.50
2018-08-25T05:40:02.034Z,1.70
2018-08-25T05:42:30.491Z,1.67
2018-08-25T05:47:32.776Z,1.47
2018-08-25T05:50:01.205Z,1.47
2018-08-25T05:52:29.612Z,1.27
2018-08-25T05:54:58.171Z,1.27
2018-08-25T05:57:26.615Z,1.50
2018-08-25T05:59:55.266Z,1.60
2018-08-25T06:02:24.191Z,1.27
2018-08-25T06:04:52.740Z,1.37
2018-08-25T06:07:21.167Z,1.87
2018-08-25T06:09:49.839Z,1.60
2018-08-25T06:12:18.424Z,1.77
2018-08-25T06:14:46.935Z,1.67
2018-08-25T06:17:15.587Z,2.13
2018-08-25T06:19:44.094Z,1.80
2018-08-25T06:22:12.559Z,2.07
2018-08-25T06:24:41.256Z,1.30
2018-08-25T06:27:09.676Z,2.33
2018-08-25T06:29:38.178Z,2.27
2018-08-25T06:32:07.059Z,1.87
2018-08-25T06:34:35.567Z,1.70
2018-08-25T06:37:03.987Z,1.80
2018-08-25T06:39:32.647Z,1.30
2018-08-25T06:42:01.113Z,1.83
2018-08-25T06:44:29.555Z,2.00
2018-08-25T06:46:58.207Z,1.60
2018-08-25T06:49:26.767Z,1.80
2018-08-25T06:51:55.371Z,1.50
2018-08-25T06:54:23.880Z,2.07
2018-08-25T06:56:52.270Z,1.87
2018-08-25T06:59:20.757Z,1.60
2018-08-25T07:01:49.392Z,1.70
2018-08-25T07:04:17.924Z,1.67
2018-08-25T07:06:46.416Z,1.77
2018-08-25T07:09:15.271Z,1.57
2018-08-25T07:11:43.799Z,2.37
2018-08-25T07:14:12.622Z,1.90
2018-08-25T07:16:41.571Z,1.70
2018-08-25T07:19:10.133Z,1.70
2018-08-25T07:21:38.599Z,2.73
2018-08-25T07:24:07.393Z,2.00
2018-08-25T07:26:35.888Z,2.23
2018-08-25T07:29:04.364Z,1.60
2018-08-25T07:31:33.047Z,1.53
2018-08-25T07:34:01.773Z,1.47
2018-08-25T07:36:30.270Z,1.30
2018-08-25T07:38:58.859Z,1.60
2018-08-25T07:41:27.339Z,2.03
2018-08-25T07:43:55.848Z,1.40
2018-08-25T07:46:24.519Z,1.30
2018-08-25T07:48:53.053Z,1.87
2018-08-25T07:51:21.555Z,1.77
2018-08-25T07:53:50.184Z,1.40
2018-08-25T07:56:18.696Z,1.40
2018-08-25T07:58:47.115Z,1.33
2018-08-25T08:01:15.647Z,1.93
2018-08-25T08:03:44.231Z,1.30
2018-08-25T08:06:12.647Z,1.63
2018-08-25T08:08:41.280Z,1.30
2018-08-25T08:11:09.805Z,1.20
2018-08-25T08:13:38.291Z,1.30
2018-08-25T08:16:07.429Z,1.10
2018-08-25T08:18:36.063Z,1.73
2018-08-25T08:21:04.635Z,1.33
2018-08-25T08:23:33.251Z,1.23
2018-08-25T08:26:01.707Z,1.20
2018-08-25T08:28:30.124Z,1.40
2018-08-25T08:30:58.741Z,1.10
2018-08-25T08:33:27.290Z,1.17
2018-08-25T08:35:55.763Z,1.03
2018-08-25T08:38:24.856Z,1.97
2018-08-25T08:40:53.316Z,1.10
2018-08-25T08:43:21.815Z,1.00
2018-08-25T08:45:50.523Z,1.10
2018-08-25T08:48:18.963Z,1.23
2018-08-25T08:50:47.434Z,1.20
2018-08-25T08:53:16.215Z,1.30
2018-08-25T08:55:44.727Z,0.80
2018-08-25T08:58:13.276Z,1.00
2018-08-25T09:00:41.908Z,0.80
2018-08-25T09:03:10.383Z,0.80
2018-08-25T09:05:38.930Z,0.70
2018-08-25T09:08:07.363Z,0.70
2018-08-25T09:10:35.837Z,0.80
2018-08-25T09:13:04.351Z,0.60
2018-08-25T09:15:32.959Z,0.60
2018-08-25T09:18:01.614Z,0.80
2018-08-25T09:20:30.087Z,0.60
2018-08-25T09:22:58.611Z,0.80
2018-08-25T09:25:27.089Z,0.70
2018-08-25T09:27:55.567Z,0.73
2018-08-25T09:30:24.339Z,1.17
2018-08-25T09:32:52.756Z,0.93
2018-08-25T09:35:21.256Z,0.50
2018-08-25T09:37:49.711Z,0.60
2018-08-25T09:40:18.135Z,0.63
2018-08-25T09:42:46.667Z,0.60
2018-08-25T09:45:15.234Z,0.60
2018-08-25T09:47:43.727Z,0.50
2018-08-25T09:50:12.227Z,0.53
2018-08-25T09:52:41.007Z,0.80
2018-08-25T09:55:09.516Z,0.47
2018-08-25T09:57:38.690Z,0.70
2018-08-25T10:00:07.351Z,0.50
2018-08-25T10:02:35.828Z,0.60
2018-08-25T10:05:04.325Z,0.70
2018-08-25T10:07:32.843Z,0.63
2018-08-25T10:10:01.299Z,0.80
2018-08-25T10:12:29.800Z,0.53
2018-08-25T10:14:58.273Z,0.50
2018-08-25T10:17:26.768Z,0.40
2018-08-25T10:19:55.299Z,0.40
2018-08-25T10:22:23.798Z,0.53
2018-08-25T10:24:52.367Z,0.70
2018-08-25T10:27:20.857Z,0.63
2018-08-25T10:29:49.349Z,0.60
2018-08-25T10:32:17.871Z,0.43
2018-08-25T10:34:46.371Z,0.50
2018-08-25T10:37:14.852Z,0.67
2018-08-25T10:39:43.324Z,0.50
2018-08-25T10:42:11.905Z,0.50
2018-08-25T10:44:40.302Z,0.50
2018-08-25T10:47:08.720Z,0.60
2018-08-25T10:49:37.218Z,0.50
2018-08-25T10:52:06.275Z,0.40
2018-08-25T10:54:34.825Z,0.50
2018-08-25T10:57:03.249Z,0.50
2018-08-25T10:59:32.063Z,0.53
2018-08-25T11:02:00.629Z,0.40
2018-08-25T11:04:29.332Z,0.60
2018-08-25T11:06:58.098Z,0.40
2018-08-25T11:09:26.563Z,0.40
2018-08-25T11:11:55.127Z,0.50
2018-08-25T11:14:23.795Z,0.50
2018-08-25T11:16:52.263Z,0.60
2018-08-25T11:19:20.667Z,0.50
2018-08-25T11:21:49.432Z,0.40
2018-08-25T11:24:17.847Z,0.60
2018-08-25T11:26:46.261Z,0.50
2018-08-25T11:29:14.968Z,0.40
2018-08-25T11:31:43.352Z,0.50
2018-08-25T11:34:11.807Z,0.53
2018-08-25T11:36:40.415Z,0.40
2018-08-25T11:39:10.599Z,0.90
2018-08-25T11:41:39.069Z,0.47
2018-08-25T11:44:07.904Z,0.50
2018-08-25T11:46:36.261Z,0.60
2018-08-25T11:49:04.720Z,0.50
2018-08-25T11:51:33.512Z,0.50
2018-08-25T11:54:02.033Z,0.40
2018-08-25T11:56:30.625Z,0.53
2018-08-25T11:58:59.201Z,0.60
2018-08-25T12:01:27.768Z,0.50
2018-08-25T12:03:56.195Z,0.50
2018-08-25T12:06:24.695Z,0.50
2018-08-25T12:08:53.319Z,0.40
2018-08-25T12:11:21.803Z,0.50
2018-08-25T12:13:50.248Z,0.50
2018-08-25T12:16:18.815Z,0.50
2018-08-25T12:18:47.275Z,0.60
2018-08-25T12:21:16.154Z,0.70
2018-08-25T12:23:44.575Z,0.60
2018-08-25T12:26:13.143Z,0.50
2018-08-25T12:28:41.947Z,0.50
2018-08-25T12:31:10.467Z,0.40
2018-08-25T12:33:39.092Z,0.50
2018-08-25T12:36:08.235Z,0.40
2018-08-25T12:38:36.982Z,0.60
2018-08-25T12:41:05.664Z,0.40
2018-08-25T12:43:34.478Z,0.50
2018-08-25T12:46:02.971Z,0.50
2018-08-25T12:48:31.448Z,0.40
2018-08-25T12:51:00.048Z,0.50
2018-08-25T12:53:28.491Z,0.60
2018-08-25T12:55:56.945Z,0.47
2018-08-25T12:58:25.760Z,0.50
2018-08-25T13:00:54.249Z,0.50
2018-08-25T13:03:22.859Z,0.40
2018-08-25T13:05:51.703Z,0.50
2018-08-25T13:08:20.350Z,1.23
2018-08-25T13:10:48.869Z,0.67
2018-08-25T13:13:17.385Z,0.60
2018-08-25T13:15:45.807Z,0.50
2018-08-25T13:18:14.364Z,0.60
2018-08-25T13:20:43.083Z,0.30
2018-08-25T13:23:11.640Z,0.60
2018-08-25T13:25:40.074Z,0.50
2018-08-25T13:28:08.603Z,0.30
2018-08-25T13:30:37.135Z,0.63
2018-08-25T13:33:05.615Z,0.70
2018-08-25T13:35:34.111Z,0.60
2018-08-25T13:38:02.700Z,0.50
2018-08-25T13:40:31.171Z,0.50
2018-08-25T13:42:59.691Z,0.70
2018-08-25T13:45:28.185Z,0.57
2018-08-25T13:47:56.616Z,0.40
2018-08-25T13:50:25.195Z,0.50
2018-08-25T13:52:53.783Z,0.43
2018-08-25T13:55:22.524Z,0.50
2018-08-25T13:57:51.299Z,0.53
2018-08-25T14:00:19.940Z,0.60
2018-08-25T14:02:48.450Z,0.50
2018-08-25T14:05:17.008Z,0.50
2018-08-25T14:07:45.513Z,0.50
2018-08-25T14:10:14.000Z,0.53
2018-08-25T14:12:42.529Z,0.50
2018-08-25T14:15:11.111Z,0.70
2018-08-25T14:17:39.604Z,0.50
2018-08-25T14:20:08.148Z,0.57
2018-08-25T14:22:36.819Z,0.50
2018-08-25T14:25:06.043Z,0.70
2018-08-25T14:27:34.516Z,0.67
2018-08-25T14:30:03.036Z,0.50
2018-08-25T14:32:31.475Z,0.47
2018-08-25T14:34:59.991Z,0.60
2018-08-25T14:37:28.492Z,0.50
2018-08-25T14:39:56.979Z,0.50
2018-08-25T14:42:25.844Z,0.50
2018-08-25T14:44:54.388Z,0.60
2018-08-25T14:47:22.995Z,0.60
2018-08-25T14:49:51.515Z,0.80
2018-08-25T14:52:19.983Z,0.97
2018-08-25T14:54:48.415Z,0.80
2018-08-25T14:57:16.856Z,0.80
2018-08-25T14:59:45.345Z,1.30
2018-08-25T15:02:13.940Z,0.80
2018-08-25T15:04:42.879Z,0.70
2018-08-25T15:07:11.315Z,1.10
2018-08-25T15:09:39.755Z,0.50
2018-08-25T15:12:08.255Z,0.63
2018-08-25T15:14:36.728Z,0.70
2018-08-25T15:17:05.274Z,0.60
2018-08-25T15:19:33.790Z,0.93
2018-08-25T15:22:02.267Z,0.70
2018-08-25T15:24:30.776Z,0.63
2018-08-25T15:26:59.540Z,0.70
2018-08-25T15:29:28.084Z,0.50
2018-08-25T15:31:56.571Z,0.70
2018-08-25T15:34:25.658Z,1.17
2018-08-25T15:36:54.160Z,0.80
2018-08-25T15:39:22.660Z,0.77
2018-08-25T15:41:51.327Z,0.80
2018-08-25T15:44:19.875Z,0.70
2018-08-25T15:46:48.358Z,0.70
2018-08-25T15:49:17.176Z,0.60
2018-08-25T15:51:45.681Z,0.80
2018-08-25T15:54:14.776Z,0.87
2018-08-25T15:56:43.316Z,0.70
2018-08-25T15:59:11.763Z,0.93
2018-08-25T16:01:40.575Z,0.90
2018-08-25T16:04:10.209Z,0.50
2018-08-25T16:06:38.792Z,0.60
2018-08-25T16:09:09.544Z,0.50
2018-08-25T16:11:38.330Z,0.53
2018-08-25T16:14:06.791Z,1.37
2018-08-25T16:16:35.368Z,0.60
2018-08-25T16:19:03.961Z,0.50
2018-08-25T16:21:32.379Z,0.87
2018-08-25T16:24:00.944Z,0.80
2018-08-25T16:26:29.455Z,0.80
2018-08-25T16:28:57.958Z,0.60
2018-08-25T16:31:26.399Z,0.60
2018-08-25T16:33:54.871Z,0.80
2018-08-25T16:36:23.476Z,0.60
2018-08-25T16:38:56.852Z,0.67
2018-08-25T16:41:27.653Z,0.50
2018-08-25T16:43:56.516Z,1.23
2018-08-25T16:46:26.949Z,1.17
2018-08-25T16:48:58.159Z,0.57
2018-08-25T16:51:28.235Z,0.83
2018-08-25T16:53:58.388Z,0.47
2018-08-25T16:56:26.864Z,0.70
2018-08-25T16:58:55.595Z,0.70
2018-08-25T17:01:24.095Z,0.80
2018-08-25T17:03:52.550Z,0.90
2018-08-25T17:06:21.173Z,0.93
2018-08-25T17:08:50.000Z,1.00
2018-08-25T17:11:18.450Z,0.93
2018-08-25T17:13:46.948Z,0.90
2018-08-25T17:16:15.499Z,0.70
2018-08-25T17:18:44.172Z,0.70
2018-08-25T17:21:12.840Z,0.60
2018-08-25T17:23:41.468Z,0.80
2018-08-25T17:26:10.028Z,0.60
2018-08-25T17:28:38.474Z,0.90
2018-08-25T17:31:07.123Z,0.80
2018-08-25T17:33:35.580Z,0.60
2018-08-25T17:36:04.088Z,0.90
2018-08-25T17:38:32.655Z,0.90
2018-08-25T17:41:01.139Z,0.90
2018-08-25T17:43:29.819Z,0.50
2018-08-25T17:45:58.947Z,0.70
2018-08-25T17:48:27.512Z,0.60
2018-08-25T17:50:56.009Z,0.60
2018-08-25T17:53:24.637Z,0.83
2018-08-25T17:55:53.188Z,0.70
2018-08-25T17:58:21.650Z,0.80
2018-08-25T18:00:50.152Z,1.17
2018-08-25T18:03:18.657Z,0.67
2018-08-25T18:05:47.143Z,0.70
2018-08-25T18:08:15.768Z,0.90
2018-08-25T18:10:44.331Z,0.60
2018-08-25T18:13:12.823Z,1.17
2018-08-25T18:15:41.595Z,0.70
2018-08-25T18:18:10.046Z,0.60
2018-08-25T18:20:38.512Z,0.63
2018-08-25T18:23:07.187Z,0.80
2018-08-25T18:25:35.703Z,0.80
2018-08-25T18:28:04.187Z,0.80
2018-08-25T18:30:32.787Z,0.67
2018-08-25T18:33:01.547Z,1.00
2018-08-25T18:35:30.444Z,0.60
2018-08-25T18:37:59.176Z,0.47
2018-08-25T18:40:27.729Z,0.83
2018-08-25T18:42:56.224Z,0.77
2018-08-25T18:45:25.163Z,0.60
2018-08-25T18:47:53.687Z,0.70
2018-08-25T18:50:22.176Z,0.50
2018-08-25T18:52:50.961Z,0.53
2018-08-25T18:55:19.651Z,0.50
2018-08-25T18:57:48.238Z,0.60
2018-08-25T19:00:16.969Z,0.70
2018-08-25T19:02:45.749Z,0.87
2018-08-25T19:05:14.690Z,0.70
2018-08-25T19:07:43.505Z,0.60
2018-08-25T19:10:12.538Z,0.70
2018-08-25T19:12:41.387Z,1.03
2018-08-25T19:15:10.503Z,0.80
2018-08-25T19:17:39.492Z,0.60
2018-08-25T19:20:08.415Z,0.80
2018-08-25T19:22:37.739Z,0.73
2018-08-25T19:25:06.678Z,0.53
2018-08-25T19:27:35.717Z,0.70
2018-08-25T19:30:04.973Z,0.90
2018-08-25T19:32:33.903Z,0.77
2018-08-25T19:35:02.711Z,0.70
2018-08-25T19:37:31.776Z,0.70
2018-08-25T19:40:00.627Z,0.60
2018-08-25T19:42:29.892Z,0.80
2018-08-25T19:44:59.224Z,0.90
2018-08-25T19:47:28.190Z,0.70
2018-08-25T19:49:57.004Z,0.73
2018-08-25T19:52:25.970Z,0.77
2018-08-25T19:54:54.685Z,0.70
2018-08-25T19:57:23.373Z,0.80
2018-08-25T19:59:52.325Z,0.60
2018-08-25T20:02:21.319Z,0.70
2018-08-25T20:04:50.623Z,0.90
2018-08-25T20:07:20.518Z,0.90
2018-08-25T20:09:49.450Z,0.70
2018-08-25T20:12:18.651Z,0.70
2018-08-25T20:14:47.882Z,0.73
2018-08-25T20:17:16.707Z,1.20
2018-08-25T20:19:45.538Z,1.07
2018-08-25T20:22:15.533Z,0.80
2018-08-25T20:24:44.098Z,1.00
2018-08-25T20:27:13.040Z,0.87
2018-08-25T20:29:42.145Z,1.07
2018-08-25T20:32:11.062Z,0.60
2018-08-25T20:34:40.190Z,1.30
2018-08-25T20:37:09.298Z,1.17
2018-08-25T20:39:37.886Z,1.20
2018-08-25T20:42:06.429Z,0.80
2018-08-25T20:44:34.948Z,0.87
2018-08-25T20:47:03.601Z,0.90
2018-08-25T20:49:32.120Z,0.83
2018-08-25T20:52:00.808Z,1.00
2018-08-25T20:54:29.248Z,1.03
2018-08-25T20:56:57.772Z,0.90
2018-08-25T20:59:26.268Z,1.10
2018-08-25T21:01:54.780Z,1.00
2018-08-25T21:04:23.268Z,0.80
2018-08-25T21:06:51.952Z,0.70
2018-08-25T21:09:20.363Z,0.80
2018-08-25T21:11:48.863Z,0.77
2018-08-25T21:14:17.976Z,1.20
2018-08-25T21:16:46.408Z,0.80
2018-08-25T21:19:14.901Z,1.00
2018-08-25T21:21:43.520Z,1.00
2018-08-25T21:24:12.336Z,0.90
2018-08-25T21:26:40.801Z,0.90
2018-08-25T21:29:09.279Z,1.07
2018-08-25T21:31:37.724Z,1.07
2018-08-25T21:34:06.544Z,0.90
2018-08-25T21:36:35.024Z,0.80
2018-08-25T21:39:04.035Z,1.10
2018-08-25T21:41:32.543Z,0.90
2018-08-25T21:44:01.412Z,0.90
2018-08-25T21:46:29.831Z,0.73
2018-08-25T21:48:58.443Z,1.40
2018-08-25T21:51:27.195Z,1.40
2018-08-25T21:53:55.632Z,1.03
2018-08-25T21:56:24.080Z,0.80
2018-08-25T21:58:52.986Z,0.90
2018-08-25T22:01:21.443Z,0.80
2018-08-25T22:03:49.936Z,0.80
2018-08-25T22:06:18.431Z,0.60
2018-08-25T22:08:46.847Z,0.80
2018-08-25T22:11:15.433Z,1.10
2018-08-25T22:13:43.986Z,0.97
2018-08-25T22:16:12.451Z,1.00
2018-08-25T22:18:40.971Z,0.80
2018-08-25T22:21:09.705Z,1.20
2018-08-25T22:23:38.279Z,1.00
2018-08-25T22:26:06.961Z,0.90
2018-08-25T22:28:35.725Z,1.03
2018-08-25T22:31:04.189Z,1.03
2018-08-25T22:33:32.768Z,0.90
2018-08-25T22:36:01.240Z,0.87
2018-08-25T22:38:29.691Z,0.70
2018-08-25T22:40:58.138Z,0.77
2018-08-25T22:43:33.647Z,0.67
2018-08-25T22:46:02.215Z,0.80
2018-08-25T22:48:30.691Z,0.90
2018-08-25T22:50:59.333Z,0.80
2018-08-25T22:53:27.772Z,1.40
2018-08-25T22:55:56.259Z,0.70
2018-08-25T22:58:25.027Z,1.00
2018-08-25T23:00:53.567Z,0.73
2018-08-25T23:03:21.999Z,0.90
2018-08-25T23:05:50.607Z,0.80
2018-08-25T23:08:19.031Z,0.90
2018-08-25T23:10:47.467Z,0.83
2018-08-25T23:13:15.919Z,0.87
2018-08-25T23:15:44.371Z,0.90
2018-08-25T23:18:13.184Z,0.70
2018-08-25T23:20:41.716Z,0.83
2018-08-25T23:23:10.217Z,1.00
2018-08-25T23:25:38.923Z,0.90
2018-08-25T23:28:07.431Z,1.00
2018-08-25T23:30:35.883Z,0.90
2018-08-25T23:33:04.755Z,0.70
2018-08-25T23:35:33.400Z,0.90
2018-08-25T23:38:01.900Z,0.80
2018-08-25T23:40:30.558Z,0.80
2018-08-25T23:42:59.088Z,1.17
2018-08-25T23:45:27.560Z,0.70
2018-08-25T23:47:56.338Z,1.10
2018-08-25T23:50:24.871Z,1.30
2018-08-25T23:52:53.338Z,1.30
2018-08-25T23:55:22.231Z,1.00
2018-08-25T23:57:50.694Z,0.90
